Time;durP1;ratioP1;P1;durP2;ratioP2;P2;SDS_P1;SDS_P2;PMS_P1;PMS_P2;Temp;Humidity;BMP_temperature;BMP_pressure;BME280_temperature;BME280_humidity;BME280_pressure;Samples;Min_cycle;Max_cycle;Signal;HPM_P1;HPM_P2
2020/12/28 00:01:01;;;;;;;10.75;9.07;;;5.10;99.90;;;;;;4969685;28;20096;-92
2020/12/28 00:03:43;;;;;;;15.18;11.98;;;5.10;99.90;;;;;;5015225;28;20077;-94
2020/12/28 00:06:24;;;;;;;13.50;11.10;;;5.10;99.90;;;;;;5006405;28;20113;-92
2020/12/28 00:08:53;;;;;;;13.57;10.75;;;5.10;99.90;;;;;;4990944;28;20038;-93
2020/12/28 00:11:22;;;;;;;15.27;12.70;;;5.10;99.90;;;;;;4974963;28;20042;-92
2020/12/28 00:13:49;;;;;;;17.38;13.57;;;5.10;99.90;;;;;;4993444;28;20037;-93
2020/12/28 00:16:27;;;;;;;20.38;14.93;;;5.10;99.90;;;;;;5013348;28;20038;-93
2020/12/28 00:19:01;;;;;;;19.45;15.38;;;5.10;99.90;;;;;;4995100;28;20072;-92
2020/12/28 00:21:32;;;;;;;19.65;15.02;;;5.10;99.90;;;;;;5010931;28;20037;-93
2020/12/28 00:23:58;;;;;;;19.13;14.88;;;5.10;99.90;;;;;;4984522;28;20038;-94
2020/12/28 00:26:28;;;;;;;20.17;14.32;;;5.10;99.90;;;;;;4975371;28;20038;-92
2020/12/28 00:28:58;;;;;;;20.70;14.75;;;5.00;99.90;;;;;;4962102;28;20035;-93
2020/12/28 00:31:27;;;;;;;18.90;14.70;;;5.10;99.90;;;;;;4978531;28;20034;-92
2020/12/28 00:34:16;;;;;;;22.00;15.40;;;5.10;99.90;;;;;;4993733;28;20034;-93
2020/12/28 00:36:45;;;;;;;17.50;14.07;;;5.10;99.90;;;;;;5010413;28;20128;-93
2020/12/28 00:39:20;;;;;;;18.95;14.93;;;5.10;99.90;;;;;;4990147;28;20038;-94
2020/12/28 00:41:57;;;;;;;18.20;14.38;;;5.10;99.90;;;;;;4994147;28;20030;-92
2020/12/28 00:44:23;;;;;;;20.48;16.20;;;5.10;99.90;;;;;;4994519;28;20111;-93
2020/12/28 00:47:02;;;;;;;19.67;16.00;;;5.10;99.90;;;;;;4978581;28;20038;-94
2020/12/28 00:49:43;;;;;;;24.05;17.55;;;5.10;99.90;;;;;;5012170;28;20045;-94
2020/12/28 00:52:28;;;;;;;21.60;17.02;;;5.10;99.90;;;;;;4995447;28;20041;-92
2020/12/28 00:55:02;;;;;;;21.83;16.20;;;5.10;99.90;;;;;;4980285;28;20510;-94
2020/12/28 00:57:30;;;;;;;20.80;15.68;;;5.10;99.90;;;;;;4984043;28;20395;-93
2020/12/28 00:59:59;;;;;;;18.77;15.90;;;5.00;99.90;;;;;;4996137;28;20054;-93
2020/12/28 01:02:25;;;;;;;18.40;15.35;;;5.00;99.90;;;;;;5011919;28;20118;-94
2020/12/28 01:04:53;;;;;;;19.55;16.35;;;5.00;99.90;;;;;;5016459;28;20053;-92
2020/12/28 01:07:18;;;;;;;18.50;15.23;;;5.10;99.90;;;;;;5006668;28;20033;-93
2020/12/28 01:09:44;;;;;;;18.92;14.85;;;5.10;99.90;;;;;;5023826;28;20030;-93
2020/12/28 01:12:10;;;;;;;23.95;16.95;;;5.10;99.90;;;;;;5006971;28;20054;-94
2020/12/28 01:14:36;;;;;;;20.70;15.82;;;5.10;99.90;;;;;;5015003;28;20038;-94
2020/12/28 01:17:01;;;;;;;20.60;16.13;;;5.10;99.90;;;;;;5001935;28;20042;-93
2020/12/28 01:19:30;;;;;;;20.63;15.75;;;5.10;99.90;;;;;;5001932;28;20042;-94
2020/12/28 01:22:09;;;;;;;19.40;14.60;;;5.10;99.90;;;;;;5000810;28;20045;-93
2020/12/28 01:24:46;;;;;;;22.20;15.32;;;5.10;99.90;;;;;;5001038;28;20064;-93
2020/12/28 01:27:13;;;;;;;20.40;16.33;;;5.10;99.90;;;;;;4986476;28;20133;-94
2020/12/28 01:29:43;;;;;;;19.73;14.85;;;5.10;99.90;;;;;;4984781;28;20041;-92
2020/12/28 01:32:09;;;;;;;17.55;15.18;;;5.00;99.90;;;;;;4980484;28;20049;-92
2020/12/28 01:34:48;;;;;;;20.02;14.93;;;5.00;99.90;;;;;;4999653;28;20038;-92
2020/12/28 01:37:17;;;;;;;18.30;14.13;;;5.00;99.90;;;;;;4984657;28;20049;-91
2020/12/28 01:39:52;;;;;;;16.35;13.35;;;5.00;99.90;;;;;;4999632;28;20045;-93
2020/12/28 01:42:20;;;;;;;16.98;13.55;;;5.00;99.90;;;;;;5000429;28;20080;-92
2020/12/28 01:44:52;;;;;;;17.77;13.35;;;5.00;99.90;;;;;;4977746;28;20137;-93
2020/12/28 01:47:44;;;;;;;17.02;13.63;;;5.00;99.90;;;;;;4961286;28;20550;-91
2020/12/28 01:50:17;;;;;;;14.95;11.82;;;5.00;99.90;;;;;;4964034;28;20402;-91
2020/12/28 01:53:04;;;;;;;13.80;10.80;;;5.00;99.90;;;;;;4977999;28;20470;-91
2020/12/28 01:55:35;;;;;;;13.13;11.23;;;5.00;99.90;;;;;;4975734;28;20502;-92
2020/12/28 01:58:05;;;;;;;13.45;11.02;;;5.00;99.90;;;;;;4977383;28;20109;-92
2020/12/28 02:00:38;;;;;;;12.30;10.63;;;5.00;99.90;;;;;;4976106;28;20122;-91
2020/12/28 02:03:07;;;;;;;;;;;5.00;99.90;;;;;;4977926;28;20041;-91
2020/12/28 02:05:43;;;;;;;12.95;10.43;;;5.00;99.90;;;;;;4976402;28;19929;-92
2020/12/28 02:08:09;;;;;;;12.75;10.55;;;4.90;99.90;;;;;;4976988;28;20034;-93
2020/12/28 02:10:38;;;;;;;12.15;10.48;;;5.00;99.90;;;;;;4976681;28;20035;-92
2020/12/28 02:13:04;;;;;;;12.63;10.25;;;4.90;99.90;;;;;;4960510;28;20042;-91
2020/12/28 02:15:30;;;;;;;11.77;9.70;;;5.00;99.90;;;;;;4976158;28;20494;-91
2020/12/28 02:18:07;;;;;;;12.57;10.30;;;4.90;99.90;;;;;;4978251;28;20034;-94
2020/12/28 02:20:37;;;;;;;13.43;9.98;;;4.90;99.90;;;;;;4978058;28;20070;-94
2020/12/28 02:23:11;;;;;;;11.18;9.23;;;4.90;99.90;;;;;;4961156;28;20046;-94
2020/12/28 02:25:47;;;;;;;10.95;9.75;;;4.90;99.90;;;;;;4976973;28;20034;-93
2020/12/28 02:28:22;;;;;;;13.00;8.95;;;4.90;99.90;;;;;;4977477;28;20104;-93
2020/12/28 02:30:48;;;;;;;10.45;8.50;;;4.80;99.90;;;;;;4960898;28;20038;-94
2020/12/28 02:33:16;;;;;;;11.77;8.60;;;4.90;99.90;;;;;;4975800;28;20038;-95
2020/12/28 02:35:48;;;;;;;9.88;8.30;;;4.90;99.90;;;;;;4959943;28;20042;-94
2020/12/28 02:38:15;;;;;;;12.23;9.25;;;4.90;99.90;;;;;;4976005;28;20049;-93
2020/12/28 02:40:52;;;;;;;13.50;9.18;;;4.90;99.90;;;;;;4976886;28;20039;-93
2020/12/28 02:43:22;;;;;;;11.60;9.98;;;4.90;99.90;;;;;;4962093;28;20439;-93
2020/12/28 02:46:02;;;;;;;12.32;9.73;;;4.90;99.90;;;;;;5011669;28;20081;-93
2020/12/28 02:48:35;;;;;;;12.10;9.75;;;4.90;99.90;;;;;;4969257;28;20121;-93
2020/12/28 02:51:28;;;;;;;13.40;10.82;;;4.90;99.90;;;;;;5000195;28;20046;-92
2020/12/28 02:53:56;;;;;;;11.88;9.02;;;4.90;99.90;;;;;;4997964;28;20030;-92
2020/12/28 02:56:22;;;;;;;11.90;8.93;;;4.90;99.90;;;;;;4998491;28;20050;-91
2020/12/28 02:58:47;;;;;;;11.90;9.25;;;4.90;99.90;;;;;;4997936;28;20034;-92
2020/12/28 03:01:37;;;;;;;15.05;10.35;;;4.90;99.90;;;;;;5015968;28;20073;-93
2020/12/28 03:04:03;;;;;;;12.88;9.95;;;4.90;99.90;;;;;;4997546;28;20034;-92
2020/12/28 03:06:31;;;;;;;14.93;10.88;;;4.90;99.90;;;;;;4998268;28;20482;-92
2020/12/28 03:08:57;;;;;;;14.85;10.95;;;4.90;99.90;;;;;;4982006;28;20069;-92
2020/12/28 03:11:23;;;;;;;15.57;10.40;;;4.90;99.90;;;;;;4980441;28;20064;-93
2020/12/28 03:13:53;;;;;;;16.00;11.48;;;4.90;99.90;;;;;;4997933;28;20073;-92
2020/12/28 03:16:19;;;;;;;16.65;11.68;;;4.90;99.90;;;;;;4997365;28;20065;-93
2020/12/28 03:18:45;;;;;;;18.25;12.38;;;4.90;99.90;;;;;;4998246;28;20038;-93
2020/12/28 03:21:11;;;;;;;21.02;13.88;;;4.80;99.90;;;;;;4997487;28;20044;-93
2020/12/28 03:23:37;;;;;;;15.18;10.90;;;4.80;99.90;;;;;;4997512;28;20034;-92
2020/12/28 03:26:12;;;;;;;18.48;12.20;;;4.90;99.90;;;;;;4998137;28;20037;-92
2020/12/28 03:28:39;;;;;;;18.73;12.32;;;4.80;99.90;;;;;;4998295;28;20497;-93
2020/12/28 03:31:05;;;;;;;16.20;12.50;;;4.80;99.90;;;;;;5015345;28;20038;-93
2020/12/28 03:33:41;;;;;;;17.13;11.95;;;4.80;99.90;;;;;;4997634;28;20029;-92
2020/12/28 03:36:07;;;;;;;18.80;11.90;;;4.80;99.90;;;;;;4997885;28;20037;-92
2020/12/28 03:38:37;;;;;;;17.45;11.68;;;4.80;99.90;;;;;;4998050;28;20386;-93
2020/12/28 03:41:04;;;;;;;15.88;10.98;;;4.80;99.90;;;;;;5015771;28;20030;-93
2020/12/28 03:43:31;;;;;;;14.20;8.85;;;4.70;99.90;;;;;;4981054;28;20042;-93
2020/12/28 03:45:57;;;;;;;17.50;10.95;;;4.70;99.90;;;;;;4997394;28;20050;-92
2020/12/28 03:48:22;;;;;;;16.30;10.18;;;4.70;99.90;;;;;;5000991;28;20080;-92
2020/12/28 03:50:48;;;;;;;17.13;10.55;;;4.70;99.90;;;;;;4997416;28;20030;-92
2020/12/28 03:53:14;;;;;;;17.85;10.88;;;4.70;99.90;;;;;;4997426;28;20038;-93
2020/12/28 03:55:41;;;;;;;16.40;10.02;;;4.70;99.90;;;;;;4981759;28;20034;-92
2020/12/28 03:58:06;;;;;;;16.15;10.70;;;4.70;99.90;;;;;;4997853;28;20041;-93
2020/12/28 04:00:35;;;;;;;15.23;11.27;;;4.70;99.90;;;;;;5015099;28;20026;-92
2020/12/28 04:03:05;;;;;;;17.88;11.02;;;4.70;99.90;;;;;;4997608;28;20041;-92
2020/12/28 04:05:36;;;;;;;17.13;10.60;;;4.70;99.90;;;;;;4998365;28;20050;-92
2020/12/28 04:08:06;;;;;;;14.10;9.75;;;4.60;99.90;;;;;;4998104;28;20041;-92
2020/12/28 04:10:38;;;;;;;14.00;9.57;;;4.70;99.90;;;;;;4997482;28;20125;-93
2020/12/28 04:13:03;;;;;;;13.00;8.70;;;4.60;99.90;;;;;;4997501;28;20036;-92
2020/12/28 04:15:35;;;;;;;13.57;8.52;;;4.60;99.90;;;;;;4997514;28;20124;-91
2020/12/28 04:18:02;;;;;;;15.23;9.52;;;4.60;99.90;;;;;;4982441;28;20042;-92
2020/12/28 04:20:33;;;;;;;13.00;9.13;;;4.50;99.90;;;;;;4981502;28;20371;-91
2020/12/28 04:23:02;;;;;;;14.52;9.98;;;4.50;99.90;;;;;;4997387;28;20478;-93
2020/12/28 04:25:27;;;;;;;17.17;11.25;;;4.50;99.90;;;;;;5013892;28;20038;-91
2020/12/28 04:27:53;;;;;;;17.10;11.50;;;4.40;99.90;;;;;;4996790;28;20040;-92
2020/12/28 04:30:20;;;;;;;15.38;10.70;;;4.40;99.90;;;;;;5000750;28;20124;-91
2020/12/28 04:32:56;;;;;;;17.88;12.10;;;4.30;99.90;;;;;;5000577;28;20553;-92
2020/12/28 04:35:22;;;;;;;16.98;11.35;;;4.20;99.90;;;;;;5001141;28;20041;-93
2020/12/28 04:37:53;;;;;;;14.02;10.57;;;4.10;99.90;;;;;;5000731;28;20057;-92
2020/12/28 04:40:22;;;;;;;14.57;10.27;;;4.00;99.90;;;;;;5018430;28;20034;-93
2020/12/28 04:42:49;;;;;;;14.43;10.95;;;4.00;99.90;;;;;;4985426;28;20076;-93
2020/12/28 04:45:21;;;;;;;13.88;9.32;;;3.90;99.90;;;;;;5000659;28;20065;-92
2020/12/28 04:47:58;;;;;;;13.60;8.50;;;3.80;99.90;;;;;;5001058;28;20038;-92
2020/12/28 04:50:29;;;;;;;14.38;8.23;;;3.80;99.90;;;;;;4985651;28;20073;-93
2020/12/28 04:52:58;;;;;;;11.10;7.70;;;3.80;99.90;;;;;;5018400;28;20322;-93
2020/12/28 04:55:44;;;;;;;11.63;7.68;;;3.80;99.90;;;;;;5000459;28;20549;-94
2020/12/28 04:58:10;;;;;;;11.63;6.95;;;3.80;99.90;;;;;;5000282;28;20030;-92
2020/12/28 05:00:58;;;;;;;9.13;6.30;;;3.80;99.90;;;;;;5017601;28;20052;-92
2020/12/28 05:03:27;;;;;;;9.95;6.18;;;3.70;99.90;;;;;;4982559;28;20092;-93
2020/12/28 05:05:57;;;;;;;9.18;5.65;;;3.70;99.90;;;;;;5000225;28;20069;-92
2020/12/28 05:08:23;;;;;;;7.03;5.20;;;3.60;99.90;;;;;;4984140;28;20073;-92
2020/12/28 05:11:23;;;;;;;7.57;5.32;;;3.50;99.90;;;;;;4999677;28;20030;-92
2020/12/28 05:13:57;;;;;;;7.47;4.70;;;3.40;99.90;;;;;;4998778;28;20034;-92
2020/12/28 05:16:26;;;;;;;8.15;4.72;;;3.50;99.90;;;;;;4984413;28;20068;-93
2020/12/28 05:18:55;;;;;;;7.03;4.82;;;3.50;99.90;;;;;;4999975;28;20073;-93
2020/12/28 05:21:25;;;;;;;9.02;6.00;;;3.60;99.90;;;;;;4999727;28;20038;-92
2020/12/28 05:23:51;;;;;;;13.70;6.72;;;3.70;99.90;;;;;;5000223;28;20065;-92
2020/12/28 05:26:21;;;;;;;9.60;6.40;;;3.70;99.90;;;;;;4999942;28;20037;-93
2020/12/28 05:28:53;;;;;;;8.70;5.63;;;3.70;99.90;;;;;;5000341;28;20062;-92
2020/12/28 05:31:22;;;;;;;8.27;5.55;;;3.70;99.90;;;;;;4984283;28;20077;-93
2020/12/28 05:33:49;;;;;;;8.50;5.40;;;3.70;99.90;;;;;;4999423;28;20034;-92
2020/12/28 05:36:17;;;;;;;7.38;5.15;;;3.70;99.90;;;;;;5017362;28;20038;-92
2020/12/28 05:38:45;;;;;;;10.32;5.28;;;3.80;99.90;;;;;;5016902;28;20042;-92
2020/12/28 05:41:13;;;;;;;7.20;4.93;;;3.80;99.90;;;;;;4983374;28;20046;-93
2020/12/28 05:43:42;;;;;;;8.60;5.85;;;3.80;99.90;;;;;;5000418;28;20504;-91
2020/12/28 05:48:59;;;;;;;12.20;7.28;;;3.80;99.90;;;;;;4999500;28;20122;-93
2020/12/28 05:51:27;;;;;;;12.63;8.18;;;3.90;99.90;;;;;;4999154;28;20054;-94
2020/12/28 05:54:15;;;;;;;15.00;8.60;;;3.90;99.90;;;;;;4975833;28;20034;-92
2020/12/28 05:56:46;;;;;;;13.00;8.32;;;3.90;99.90;;;;;;4993644;28;20045;-92
2020/12/28 05:59:14;;;;;;;12.73;8.35;;;3.90;99.90;;;;;;4980922;28;20181;-92
2020/12/28 06:01:44;;;;;;;14.43;8.00;;;4.00;99.90;;;;;;4991395;28;20402;-92
2020/12/28 06:04:16;;;;;;;13.18;7.68;;;3.90;99.90;;;;;;4987826;28;20493;-92
2020/12/28 06:06:43;;;;;;;12.83;7.03;;;4.00;99.90;;;;;;5000418;28;20105;-92
2020/12/28 06:09:10;;;;;;;10.07;7.00;;;4.00;99.90;;;;;;4985944;28;20038;-92
2020/12/28 06:11:39;;;;;;;13.20;7.80;;;4.00;99.90;;;;;;5001913;28;20033;-92
2020/12/28 06:14:23;;;;;;;13.27;7.30;;;4.00;99.90;;;;;;5002521;28;20034;-92
2020/12/28 06:17:07;;;;;;;15.00;7.93;;;4.00;99.90;;;;;;5033424;28;20049;-94
2020/12/28 06:19:33;;;;;;;11.80;7.15;;;4.10;99.90;;;;;;5005055;28;20041;-92
2020/12/28 06:22:03;;;;;;;14.27;9.43;;;4.10;99.90;;;;;;5002868;28;20093;-94
2020/12/28 06:24:34;;;;;;;12.45;7.70;;;4.10;99.90;;;;;;4982438;28;20096;-92
2020/12/28 06:27:09;;;;;;;12.43;8.65;;;4.10;99.90;;;;;;4981690;28;20516;-91
2020/12/28 06:29:37;;;;;;;15.00;8.25;;;4.10;99.90;;;;;;4992569;28;20041;-92
2020/12/28 06:32:13;;;;;;;14.43;9.43;;;4.10;99.90;;;;;;4997534;28;20034;-92
2020/12/28 06:34:46;;;;;;;13.15;8.90;;;4.10;99.90;;;;;;4995099;28;20045;-90
2020/12/28 06:37:14;;;;;;;13.27;8.00;;;4.10;99.90;;;;;;4995837;28;20030;-92
2020/12/28 06:39:46;;;;;;;14.10;9.63;;;4.10;99.90;;;;;;4995240;28;20561;-93
2020/12/28 06:42:18;;;;;;;13.45;8.77;;;4.10;99.90;;;;;;4980475;28;20042;-92
2020/12/28 06:44:51;;;;;;;14.27;9.75;;;4.10;99.90;;;;;;4996676;28;20473;-93
2020/12/28 06:47:24;;;;;;;17.08;10.55;;;4.10;99.90;;;;;;4996668;28;20076;-93
2020/12/28 06:49:53;;;;;;;17.88;11.48;;;4.00;99.90;;;;;;4995609;28;20488;-91
2020/12/28 06:52:27;;;;;;;15.32;10.80;;;4.00;99.90;;;;;;4981736;28;20034;-90
2020/12/28 06:55:44;;;;;;;19.13;11.40;;;4.00;99.90;;;;;;4998681;28;20041;-92
2020/12/28 06:58:24;;;;;;;15.65;10.65;;;4.00;99.90;;;;;;5006352;28;20050;-92
2020/12/28 07:01:00;;;;;;;16.38;10.38;;;4.00;99.90;;;;;;4979531;28;20501;-91
2020/12/28 07:03:29;;;;;;;13.88;9.13;;;4.00;99.90;;;;;;4995568;28;20034;-89
2020/12/28 07:06:05;;;;;;;15.70;10.50;;;4.00;99.90;;;;;;4994655;28;20088;-92
2020/12/28 07:08:44;;;;;;;;;;;;;;;;;;;;;
2020/12/28 07:11:35;;;;;;;15.32;10.38;;;4.00;99.90;;;;;;5015515;28;20500;-91
2020/12/28 07:14:08;;;;;;;16.90;10.55;;;4.00;99.90;;;;;;5013193;28;20033;-90
2020/12/28 07:16:47;;;;;;;14.50;10.25;;;4.00;99.90;;;;;;4996942;28;20100;-91
2020/12/28 07:19:23;;;;;;;15.98;9.90;;;4.10;99.90;;;;;;4995123;28;20077;-91
2020/12/28 07:22:21;;;;;;;15.52;9.82;;;4.00;99.90;;;;;;5015542;28;20045;-91
2020/12/28 07:24:58;;;;;;;15.98;10.93;;;4.00;99.90;;;;;;4998853;28;20073;-91
2020/12/28 07:27:25;;;;;;;15.30;9.23;;;4.10;99.90;;;;;;4997949;28;20026;-92
2020/12/28 07:30:04;;;;;;;;;;;;;;;;;;;;;
2020/12/28 07:32:41;;;;;;;13.40;9.65;;;4.10;99.90;;;;;;5011974;28;20042;-93
2020/12/28 07:35:19;;;;;;;15.93;10.45;;;4.10;99.90;;;;;;5014923;28;20040;-91
2020/12/28 07:37:53;;;;;;;16.17;10.55;;;4.10;99.90;;;;;;4991618;28;20487;-92
2020/12/28 07:40:32;;;;;;;19.58;12.93;;;4.10;99.90;;;;;;5008786;28;20047;-92
2020/12/28 07:43:15;;;;;;;24.60;13.25;;;4.10;99.90;;;;;;4990976;28;20068;-92
2020/12/28 07:45:54;;;;;;;;;;;;;;;;;;;;;
2020/12/28 07:48:31;;;;;;;16.52;11.30;;;4.10;99.90;;;;;;4985420;28;20092;-92
2020/12/28 07:51:08;;;;;;;15.93;10.38;;;4.10;99.90;;;;;;4991823;28;20030;-93
2020/12/28 07:53:41;;;;;;;15.10;9.68;;;4.20;99.90;;;;;;4993264;28;20513;-93
2020/12/28 07:56:23;;;;;;;16.13;10.77;;;4.20;99.90;;;;;;4995685;28;20082;-93
2020/12/28 07:59:40;;;;;;;16.10;10.90;;;4.20;99.90;;;;;;4981662;28;20126;-90
2020/12/28 08:03:15;;;;;;;13.52;8.90;;;4.20;99.90;;;;;;4978898;28;20493;-91
2020/12/28 08:05:58;;;;;;;15.52;10.75;;;4.20;99.90;;;;;;4909825;29;20048;-92
2020/12/28 08:09:00;;;;;;;15.52;9.90;;;4.20;99.90;;;;;;4928928;28;20048;-92
2020/12/28 08:11:40;;;;;;;17.85;9.88;;;4.20;99.90;;;;;;4977954;28;20042;-93
2020/12/28 08:14:51;;;;;;;13.00;8.35;;;4.20;99.90;;;;;;4960382;29;20476;-95
2020/12/28 08:17:36;;;;;;;18.27;8.93;;;4.20;99.90;;;;;;4975302;28;20050;-96
2020/12/28 08:21:07;;;;;;;;;;;;;;;;;;;;;
2020/12/28 08:24:51;;;;;;;;;;;;;;;;;;;;;
2020/12/28 08:27:30;;;;;;;12.43;8.38;;;4.20;99.90;;;;;;4920242;29;20044;-92
2020/12/28 08:30:25;;;;;;;14.02;8.32;;;4.20;99.90;;;;;;4917517;29;20040;-94
2020/12/28 08:36:41;;;;;;;;;;;;;;;;;;;;;
2020/12/28 08:39:41;;;;;;;10.27;6.53;;;4.30;99.90;;;;;;4939808;29;20039;-91
2020/12/28 08:48:59;;;;;;;;;;;;;;;;;;;;;
2020/12/28 08:51:35;;;;;;;10.68;7.15;;;4.50;99.90;;;;;;4939438;29;20535;-92
2020/12/28 08:54:27;;;;;;;11.77;6.30;;;4.50;99.90;;;;;;4957115;29;20063;-92
2020/12/28 08:57:10;;;;;;;10.13;6.28;;;4.50;99.90;;;;;;4940528;29;20072;-91
2020/12/28 08:59:54;;;;;;;8.02;5.85;;;4.50;99.90;;;;;;4941013;28;20047;-91
2020/12/28 09:02:25;;;;;;;9.20;5.65;;;4.40;99.90;;;;;;4960832;28;20594;-91
2020/12/28 09:18:50;;;;;;;;;;;;;;;;;;;;;
2020/12/28 11:35:21;;;;;;;;;;;;;;;;;;;;;
2020/12/28 11:45:42;;;;;;;;;;;;;;;;;;;;;
2020/12/28 11:49:00;;;;;;;5.65;1.48;;;7.50;99.90;;;;;;4868164;29;20494;-92
2020/12/28 11:56:00;;;;;;;;;;;;;;;;;;;;;
2020/12/28 12:02:27;;;;;;;3.45;1.63;;;6.90;99.90;;;;;;4841859;29;20042;-93
2020/12/28 12:09:13;;;;;;;3.33;1.48;;;6.60;99.90;;;;;;4871567;29;20057;-93
2020/12/28 12:22:49;;;;;;;2.75;1.45;;;6.30;99.90;;;;;;4806032;29;20038;-93
2020/12/28 12:40:20;;;;;;;;;;;;;;;;;;;;;
2020/12/28 14:55:44;;;;;;;2.30;1.30;;;5.30;99.90;;;;;;4984831;23;20049;-90
2020/12/28 14:58:11;;;;;;;1.70;1.02;;;5.30;99.90;;;;;;5015511;28;20144;-90
2020/12/28 15:00:37;;;;;;;3.88;1.63;;;5.30;99.90;;;;;;5024988;28;20102;-89
2020/12/28 15:03:02;;;;;;;3.35;1.38;;;5.20;99.90;;;;;;5006136;28;20059;-90
2020/12/28 15:05:37;;;;;;;4.57;1.58;;;5.20;99.90;;;;;;4995918;28;20042;-89
2020/12/28 15:08:04;;;;;;;3.17;1.70;;;5.20;99.90;;;;;;4986325;28;20038;-91
2020/12/28 15:10:30;;;;;;;2.58;1.48;;;5.10;99.90;;;;;;4988138;28;20030;-90
2020/12/28 15:12:56;;;;;;;3.40;1.40;;;5.10;99.90;;;;;;4993518;28;20054;-90
2020/12/28 15:15:22;;;;;;;3.80;1.85;;;5.10;99.90;;;;;;4995254;28;20178;-91
2020/12/28 15:17:48;;;;;;;4.10;1.63;;;5.10;99.90;;;;;;4994900;28;20056;-91
2020/12/28 15:20:13;;;;;;;3.35;1.95;;;5.00;99.90;;;;;;5007998;28;20032;-91
2020/12/28 15:22:39;;;;;;;3.20;1.95;;;5.00;99.90;;;;;;4995156;28;20026;-90
2020/12/28 15:25:05;;;;;;;3.92;1.95;;;5.00;99.90;;;;;;4994959;28;20026;-91
2020/12/28 15:27:30;;;;;;;5.82;2.13;;;5.00;99.90;;;;;;4993988;28;20424;-89
2020/12/28 15:29:56;;;;;;;4.20;1.95;;;4.90;99.90;;;;;;5004368;28;20145;-90
2020/12/28 15:32:22;;;;;;;3.60;1.92;;;4.90;99.90;;;;;;4988056;28;20061;-90
2020/12/28 15:34:47;;;;;;;4.60;2.20;;;4.90;99.90;;;;;;5001825;28;20099;-91
2020/12/28 15:37:13;;;;;;;3.30;1.90;;;4.80;99.90;;;;;;5029427;28;20518;-88
2020/12/28 15:39:38;;;;;;;3.92;1.90;;;4.80;99.90;;;;;;4994944;28;20038;-90
2020/12/28 15:42:04;;;;;;;4.60;1.85;;;4.80;99.90;;;;;;4992140;28;20109;-89
2020/12/28 15:44:30;;;;;;;3.63;1.88;;;4.80;99.90;;;;;;4993720;28;20034;-89
2020/12/28 15:46:56;;;;;;;4.97;2.08;;;4.80;99.90;;;;;;4995354;28;20411;-88
2020/12/28 15:49:22;;;;;;;2.75;1.73;;;4.80;99.90;;;;;;4994733;28;20033;-89
2020/12/28 15:51:49;;;;;;;3.10;1.77;;;4.80;99.90;;;;;;4993548;28;20057;-89
2020/12/28 15:54:15;;;;;;;3.63;1.65;;;4.80;99.90;;;;;;4995884;28;20041;-89
2020/12/28 15:56:45;;;;;;;4.63;2.05;;;4.80;99.90;;;;;;4995131;28;20050;-89
2020/12/28 15:59:10;;;;;;;4.47;1.80;;;4.80;99.90;;;;;;4995149;28;20128;-90
2020/12/28 16:01:36;;;;;;;4.38;2.10;;;4.80;99.90;;;;;;4994822;28;20142;-89
2020/12/28 16:04:02;;;;;;;4.38;2.00;;;4.80;99.90;;;;;;4995534;28;20443;-91
2020/12/28 16:06:27;;;;;;;4.65;1.88;;;4.80;99.90;;;;;;4995997;28;20040;-89
2020/12/28 16:08:54;;;;;;;4.72;2.03;;;4.80;99.90;;;;;;4996112;28;20038;-88
2020/12/28 16:11:19;;;;;;;5.55;2.70;;;4.80;99.90;;;;;;4996256;28;20092;-89
2020/12/28 16:13:50;;;;;;;5.22;2.50;;;4.90;99.90;;;;;;4996046;28;20370;-91
2020/12/28 16:16:20;;;;;;;4.97;2.00;;;4.90;99.90;;;;;;5008048;28;20504;-89
2020/12/28 16:18:46;;;;;;;5.95;2.80;;;4.90;99.90;;;;;;4987436;28;20037;-88
2020/12/28 16:21:12;;;;;;;4.82;2.78;;;4.90;99.90;;;;;;4994472;28;20026;-88
2020/12/28 16:23:37;;;;;;;4.88;2.67;;;4.90;99.90;;;;;;5020803;28;20087;-89
2020/12/28 16:26:03;;;;;;;4.40;2.30;;;4.90;99.90;;;;;;5027593;28;20174;-86
2020/12/28 16:28:30;;;;;;;4.07;2.28;;;4.80;99.90;;;;;;5021464;28;20038;-86
2020/12/28 16:30:59;;;;;;;5.78;2.22;;;4.80;99.90;;;;;;5017029;28;20033;-89
2020/12/28 16:33:25;;;;;;;3.67;2.20;;;4.80;99.90;;;;;;4998791;28;20033;-90
2020/12/28 16:35:51;;;;;;;4.75;2.80;;;4.80;99.90;;;;;;5009506;28;20125;-89
2020/12/28 16:38:17;;;;;;;3.72;2.00;;;4.70;99.90;;;;;;5020358;28;20033;-90
2020/12/28 16:40:43;;;;;;;5.05;2.50;;;4.70;99.90;;;;;;5045833;28;20025;-89
2020/12/28 16:43:09;;;;;;;4.05;2.28;;;4.70;99.90;;;;;;5052963;28;20028;-90
2020/12/28 16:45:34;;;;;;;5.28;2.60;;;4.70;99.90;;;;;;5017726;28;20038;-88
2020/12/28 16:48:00;;;;;;;5.90;2.80;;;4.60;99.90;;;;;;5022691;28;20029;-87
2020/12/28 16:50:35;;;;;;;3.95;2.35;;;4.60;99.90;;;;;;5039255;22;20512;-85
2020/12/28 16:53:07;;;;;;;5.50;2.30;;;4.60;99.90;;;;;;4979676;28;20763;-88
2020/12/28 16:55:38;;;;;;;5.82;2.30;;;4.70;99.90;;;;;;4978979;28;20066;-93
2020/12/28 16:58:04;;;;;;;5.75;2.20;;;4.70;99.90;;;;;;4961387;28;20801;-91
2020/12/28 17:00:30;;;;;;;6.50;2.38;;;4.70;99.90;;;;;;4959899;28;20045;-91
2020/12/28 17:02:56;;;;;;;3.90;2.20;;;4.70;99.90;;;;;;4958468;28;20097;-92
2020/12/28 17:05:23;;;;;;;5.63;1.95;;;4.80;99.90;;;;;;4959572;28;20090;-92
2020/12/28 17:07:51;;;;;;;4.50;2.15;;;4.70;99.90;;;;;;4960185;28;20063;-93
2020/12/28 17:10:19;;;;;;;4.82;2.22;;;4.80;99.90;;;;;;4962235;28;20127;-90
2020/12/28 17:12:47;;;;;;;5.78;2.10;;;4.80;99.90;;;;;;4962557;28;20089;-88
2020/12/28 17:15:13;;;;;;;5.75;2.67;;;4.80;99.90;;;;;;4968876;28;20411;-90
2020/12/28 17:20:04;;;;;;;5.95;3.08;;;4.90;99.90;;;;;;4987148;23;20075;-91
2020/12/28 17:22:30;;;;;;;4.65;2.70;;;4.80;99.90;;;;;;4940706;28;20102;-92
2020/12/28 17:25:18;;;;;;;5.43;2.10;;;4.90;99.90;;;;;;4961938;28;20032;-91
2020/12/28 17:28:05;;;;;;;4.65;1.90;;;4.90;99.90;;;;;;4951088;28;20059;-91
2020/12/28 17:31:00;;;;;;;4.68;2.17;;;5.00;99.90;;;;;;4912567;29;20602;-91
2020/12/28 17:33:48;;;;;;;;;;;;;;;;;;;;;
2020/12/28 17:36:43;;;;;;;4.18;1.98;;;5.00;99.90;;;;;;4969412;28;20041;-91
2020/12/28 17:39:18;;;;;;;4.57;2.30;;;5.00;99.90;;;;;;4938116;28;20139;-92
2020/12/28 17:41:44;;;;;;;3.28;1.83;;;5.00;99.90;;;;;;4955035;28;20086;-91
2020/12/28 17:44:25;;;;;;;5.13;2.05;;;5.00;99.90;;;;;;4951524;28;20035;-91
2020/12/28 17:47:10;;;;;;;4.35;1.90;;;5.10;99.90;;;;;;4936741;29;20047;-93
2020/12/28 17:49:48;;;;;;;4.30;2.20;;;5.10;99.90;;;;;;4938245;29;20042;-93
2020/12/28 17:52:51;;;;;;;4.93;2.15;;;5.10;99.90;;;;;;4939049;29;20039;-91
2020/12/28 17:55:42;;;;;;;;;;;;;;;;;;;;;
2020/12/28 17:58:17;;;;;;;4.55;2.65;;;5.00;99.90;;;;;;4962939;28;20043;-92
2020/12/28 18:01:29;;;;;;;3.92;2.40;;;5.00;99.90;;;;;;4958140;28;20053;-93
2020/12/28 18:04:20;;;;;;;4.40;2.10;;;5.10;99.90;;;;;;4933742;28;20043;-93
2020/12/28 18:07:06;;;;;;;3.33;2.00;;;5.00;99.90;;;;;;4961939;28;20035;-93
2020/12/28 18:09:59;;;;;;;4.32;2.63;;;5.00;99.90;;;;;;4974080;28;20057;-94
2020/12/28 18:13:06;;;;;;;3.40;2.13;;;5.00;99.90;;;;;;4961922;28;20284;-93
2020/12/28 18:16:13;;;;;;;4.70;2.33;;;4.90;99.90;;;;;;4950479;29;20043;-92
2020/12/28 18:18:43;;;;;;;4.40;2.40;;;4.90;99.90;;;;;;4935980;29;20052;-92
2020/12/28 18:21:15;;;;;;;4.72;2.35;;;4.90;99.90;;;;;;4918950;29;20062;-91
2020/12/28 18:24:17;;;;;;;3.35;2.05;;;4.80;99.90;;;;;;4919177;28;20042;-94
2020/12/28 18:26:46;;;;;;;4.90;2.60;;;4.80;99.90;;;;;;4935182;29;20405;-93
2020/12/28 18:29:20;;;;;;;5.20;2.80;;;4.80;99.90;;;;;;4945523;28;20030;-93
2020/12/28 18:31:52;;;;;;;4.85;2.83;;;4.80;99.90;;;;;;4948059;29;20039;-93
2020/12/28 18:34:25;;;;;;;4.72;2.83;;;4.80;99.90;;;;;;4938172;29;20036;-91
2020/12/28 18:36:53;;;;;;;4.72;3.00;;;4.80;99.90;;;;;;4944839;29;20548;-94
2020/12/28 18:39:21;;;;;;;5.63;3.40;;;4.80;99.90;;;;;;4944008;29;20038;-93
2020/12/28 18:42:03;;;;;;;5.00;3.00;;;4.80;99.90;;;;;;4966369;28;20039;-94
2020/12/28 18:44:45;;;;;;;;;;;;;;;;;;;;;
2020/12/28 18:47:22;;;;;;;;;;;;;;;;;;;;;
2020/12/28 18:50:04;;;;;;;5.45;3.35;;;4.80;99.90;;;;;;4969156;28;20045;-96
2020/12/28 18:52:52;;;;;;;;;;;;;;;;;;;;;
2020/12/28 18:55:39;;;;;;;5.88;3.28;;;4.80;99.90;;;;;;4935512;29;20035;-93
2020/12/28 18:58:20;;;;;;;7.00;3.55;;;4.80;99.90;;;;;;4948013;28;20034;-92
2020/12/28 19:01:13;;;;;;;6.88;4.20;;;4.70;99.90;;;;;;4956775;28;20046;-91
2020/12/28 19:03:44;;;;;;;6.55;4.30;;;4.70;99.90;;;;;;4946461;28;20047;-92
2020/12/28 19:06:13;;;;;;;7.00;4.65;;;4.70;99.90;;;;;;4930716;28;20616;-90
2020/12/28 19:08:50;;;;;;;6.03;3.92;;;4.70;99.90;;;;;;4940268;29;20053;-92
2020/12/28 19:11:34;;;;;;;;;;;;;;;;;;;;;
2020/12/28 19:14:01;;;;;;;8.45;4.82;;;4.70;99.90;;;;;;4942285;29;20049;-95
2020/12/28 19:16:35;;;;;;;7.32;4.82;;;4.70;99.90;;;;;;4952430;28;20038;-94
2020/12/28 19:19:17;;;;;;;7.72;4.63;;;4.70;99.90;;;;;;4958324;28;20026;-92
2020/12/28 19:21:45;;;;;;;6.85;4.65;;;4.60;99.90;;;;;;4943973;28;20051;-92
2020/12/28 19:24:37;;;;;;;6.65;4.82;;;4.60;99.90;;;;;;4953328;28;20563;-93
2020/12/28 19:27:12;;;;;;;6.63;4.30;;;4.60;99.90;;;;;;4951280;28;20516;-93
2020/12/28 19:29:57;;;;;;;;;;;;;;;;;;;;;